createdAt,value
2018-10-17T00:00:49.422Z,13.36
2018-10-17T00:05:52.967Z,13.43
2018-10-17T00:10:56.585Z,13.27
2018-10-17T00:16:00.114Z,12.98
2018-10-17T00:21:03.782Z,12.95
2018-10-17T00:26:07.334Z,13.00
2018-10-17T00:31:10.939Z,13.08
2018-10-17T00:36:14.534Z,13.07
2018-10-17T00:41:18.164Z,13.13
2018-10-17T00:46:21.727Z,13.19
2018-10-17T00:51:25.362Z,13.03
2018-10-17T00:56:28.929Z,12.90
2018-10-17T01:01:32.431Z,12.84
2018-10-17T01:06:36.434Z,12.48
2018-10-17T01:11:40.441Z,12.22
2018-10-17T01:16:44.065Z,12.13
2018-10-17T01:21:48.230Z,12.09
2018-10-17T01:26:51.833Z,12.36
2018-10-17T01:31:55.377Z,12.61
2018-10-17T01:36:58.978Z,12.88
2018-10-17T01:42:02.510Z,13.05
2018-10-17T01:47:06.421Z,13.06
2018-10-17T01:52:09.945Z,12.99
2018-10-17T01:57:13.632Z,12.77
2018-10-17T02:02:17.193Z,12.67
2018-10-17T02:07:20.798Z,12.81
2018-10-17T02:12:24.306Z,12.87
2018-10-17T02:17:27.838Z,12.87
2018-10-17T02:22:31.368Z,12.70
2018-10-17T02:27:35.036Z,12.79
2018-10-17T02:32:38.557Z,12.81
2018-10-17T02:37:42.338Z,12.84
2018-10-17T02:42:45.886Z,12.84
2018-10-17T02:47:49.460Z,12.83
2018-10-17T02:52:53.069Z,12.81
2018-10-17T02:57:56.698Z,12.79
2018-10-17T03:03:00.245Z,12.73
2018-10-17T03:08:03.847Z,12.68
2018-10-17T03:13:07.363Z,12.69
2018-10-17T03:18:10.923Z,12.59
2018-10-17T03:23:14.664Z,12.59
2018-10-17T03:28:18.213Z,12.57
2018-10-17T03:33:21.770Z,12.52
2018-10-17T03:38:25.532Z,12.27
2018-10-17T03:43:29.142Z,12.27
2018-10-17T03:48:32.725Z,12.30
2018-10-17T03:53:36.301Z,12.35
2018-10-17T03:58:39.805Z,12.16
2018-10-17T04:03:43.424Z,11.64
2018-10-17T04:08:46.982Z,11.37
2018-10-17T04:13:50.459Z,11.53
2018-10-17T04:18:54.022Z,11.71
2018-10-17T04:23:57.649Z,11.81
2018-10-17T04:29:01.464Z,11.68
2018-10-17T04:34:05.092Z,11.50
2018-10-17T04:39:10.416Z,11.74
2018-10-17T04:44:14.005Z,11.97
2018-10-17T04:49:17.684Z,11.87
2018-10-17T04:54:21.177Z,11.40
2018-10-17T04:59:25.102Z,11.49
2018-10-17T05:04:28.743Z,11.77
2018-10-17T05:09:32.355Z,11.86
2018-10-17T05:14:35.991Z,11.71
2018-10-17T05:19:39.587Z,11.75
2018-10-17T05:24:43.182Z,11.73
2018-10-17T05:29:46.824Z,11.81
2018-10-17T05:34:50.362Z,11.65
2018-10-17T05:39:54.125Z,11.43
2018-10-17T05:44:57.651Z,11.52
2018-10-17T05:50:01.200Z,11.11
2018-10-17T05:55:04.948Z,11.02
2018-10-17T06:00:10.266Z,11.23
2018-10-17T06:05:13.995Z,11.13
2018-10-17T06:10:17.630Z,11.01
2018-10-17T06:15:21.322Z,11.26
2018-10-17T06:20:24.874Z,11.43
2018-10-17T06:25:28.416Z,11.44
2018-10-17T06:30:31.994Z,11.63
2018-10-17T06:35:35.575Z,11.54
2018-10-17T06:40:39.184Z,11.80
2018-10-17T06:45:42.775Z,12.05
2018-10-17T06:50:46.378Z,12.32
2018-10-17T06:55:49.963Z,12.49
2018-10-17T07:00:53.612Z,12.25
2018-10-17T07:05:57.209Z,12.78
2018-10-17T07:11:00.795Z,13.17
2018-10-17T07:16:04.457Z,13.52
2018-10-17T07:21:08.370Z,13.12
2018-10-17T07:26:11.943Z,13.04
2018-10-17T07:31:15.760Z,13.34
2018-10-17T07:36:19.300Z,13.72
2018-10-17T07:41:22.874Z,13.91
2018-10-17T07:46:26.815Z,14.15
2018-10-17T07:51:30.420Z,14.28
2018-10-17T07:56:34.012Z,14.48
2018-10-17T08:01:37.681Z,14.62
2018-10-17T08:06:41.869Z,15.08
2018-10-17T08:11:45.462Z,15.25
2018-10-17T08:16:49.092Z,15.42
2018-10-17T08:21:52.866Z,15.58
2018-10-17T08:26:56.411Z,15.71
2018-10-17T08:32:00.003Z,15.92
2018-10-17T08:37:03.956Z,16.23
2018-10-17T08:42:07.618Z,16.76
2018-10-17T08:47:11.195Z,16.93
2018-10-17T08:52:14.844Z,17.23
2018-10-17T08:57:27.490Z,17.43
2018-10-17T09:02:31.100Z,17.37
2018-10-17T09:07:34.668Z,17.43
2018-10-17T09:12:38.235Z,17.68
2018-10-17T09:17:41.823Z,17.83
2018-10-17T09:22:45.478Z,18.14
2018-10-17T09:27:48.977Z,18.44
2018-10-17T09:32:52.558Z,18.59
2018-10-17T09:37:56.118Z,18.80
2018-10-17T09:42:59.688Z,19.14
2018-10-17T09:48:03.333Z,19.27
2018-10-17T09:53:06.977Z,19.48
2018-10-17T09:58:10.561Z,19.68
2018-10-17T10:03:14.192Z,19.79
2018-10-17T10:08:17.724Z,20.00
2018-10-17T10:13:21.363Z,20.09
2018-10-17T10:18:25.275Z,20.37
2018-10-17T10:23:28.894Z,20.44
2018-10-17T10:28:32.411Z,20.58
2018-10-17T10:33:36.689Z,20.93
2018-10-17T10:38:40.289Z,21.13
2018-10-17T10:43:43.846Z,21.39
2018-10-17T10:48:47.402Z,21.49
2018-10-17T10:53:50.958Z,21.37
2018-10-17T10:58:54.563Z,21.38
2018-10-17T11:03:58.119Z,21.28
2018-10-17T11:09:01.757Z,21.44
2018-10-17T11:14:06.051Z,21.45
2018-10-17T11:19:09.522Z,21.54
2018-10-17T11:24:13.062Z,21.60
2018-10-17T11:29:16.808Z,21.71
2018-10-17T11:34:20.361Z,21.91
2018-10-17T11:39:23.942Z,22.25
2018-10-17T11:44:27.498Z,22.33
2018-10-17T11:49:31.094Z,22.30
2018-10-17T11:54:34.708Z,22.17
2018-10-17T11:59:38.297Z,22.21
2018-10-17T12:04:42.046Z,22.30
2018-10-17T12:09:45.481Z,22.52
2018-10-17T12:14:49.236Z,22.66
2018-10-17T12:19:52.852Z,22.79
2018-10-17T12:24:56.379Z,22.67
2018-10-17T12:29:59.988Z,22.71
2018-10-17T12:35:03.581Z,22.73
2018-10-17T12:40:08.728Z,22.84
2018-10-17T12:45:12.244Z,22.97
2018-10-17T12:50:15.843Z,23.02
2018-10-17T12:55:19.422Z,22.94
2018-10-17T13:00:34.028Z,23.00
2018-10-17T13:05:37.609Z,23.18
2018-10-17T13:10:41.278Z,23.25
2018-10-17T13:15:44.823Z,23.20
2018-10-17T13:20:48.470Z,23.10
2018-10-17T13:25:51.986Z,23.36
2018-10-17T13:30:56.948Z,23.34
2018-10-17T13:36:00.781Z,23.43
2018-10-17T13:41:04.472Z,23.28
2018-10-17T13:46:08.466Z,23.29
2018-10-17T13:51:12.083Z,23.18
2018-10-17T13:56:15.692Z,23.16
2018-10-17T14:01:19.328Z,23.10
2018-10-17T14:06:22.935Z,23.21
2018-10-17T14:11:26.544Z,23.27
2018-10-17T14:16:30.158Z,23.22
2018-10-17T14:21:33.709Z,23.35
2018-10-17T14:26:37.271Z,23.19
2018-10-17T14:31:40.811Z,22.96
2018-10-17T14:36:44.378Z,22.99
2018-10-17T14:41:47.970Z,22.80
2018-10-17T14:46:51.658Z,22.57
2018-10-17T14:51:55.227Z,22.50
2018-10-17T14:56:58.828Z,22.61
2018-10-17T15:02:02.402Z,22.46
2018-10-17T15:07:06.230Z,22.36
2018-10-17T15:12:10.009Z,22.18
2018-10-17T15:17:13.604Z,22.06
2018-10-17T15:22:17.165Z,22.02
2018-10-17T15:27:20.754Z,21.93
2018-10-17T15:32:24.423Z,21.75
2018-10-17T15:37:33.023Z,21.65
2018-10-17T15:42:37.044Z,21.54
2018-10-17T15:47:40.827Z,21.43
2018-10-17T15:52:44.481Z,21.24
2018-10-17T15:57:48.055Z,21.07
2018-10-17T16:02:51.679Z,20.89
2018-10-17T16:07:55.265Z,20.61
2018-10-17T16:12:58.834Z,20.44
2018-10-17T16:18:02.468Z,20.22
2018-10-17T16:23:06.248Z,20.03
2018-10-17T16:28:09.923Z,19.87
2018-10-17T16:33:13.708Z,19.73
2018-10-17T16:38:17.320Z,19.59
2018-10-17T16:43:20.843Z,19.44
2018-10-17T16:48:24.667Z,19.16
2018-10-17T16:53:28.520Z,19.14
2018-10-17T16:58:32.114Z,19.05
2018-10-17T17:03:35.610Z,18.76
2018-10-17T17:08:39.168Z,18.62
2018-10-17T17:13:42.714Z,18.42
2018-10-17T17:18:46.661Z,18.28
2018-10-17T17:23:50.218Z,18.15
2018-10-17T17:28:54.074Z,18.02
2018-10-17T17:33:57.640Z,18.03
2018-10-17T17:39:01.183Z,18.22
2018-10-17T17:44:04.917Z,18.30
2018-10-17T17:49:08.474Z,18.29
2018-10-17T17:54:12.027Z,18.27
2018-10-17T17:59:15.598Z,18.19
2018-10-17T18:04:19.259Z,18.03
2018-10-17T18:09:22.761Z,17.98
2018-10-17T18:14:26.768Z,17.83
2018-10-17T18:19:30.252Z,17.74
2018-10-17T18:24:33.836Z,17.64
2018-10-17T18:29:37.351Z,17.44
2018-10-17T18:34:41.212Z,17.26
2018-10-17T18:39:44.936Z,17.08
2018-10-17T18:44:48.470Z,16.91
2018-10-17T18:49:52.359Z,16.81
2018-10-17T18:54:56.090Z,16.68
2018-10-17T18:59:59.647Z,16.56
2018-10-17T19:05:04.202Z,16.50
2018-10-17T19:10:07.754Z,16.43
2018-10-17T19:15:11.424Z,16.31
2018-10-17T19:20:15.053Z,16.28
2018-10-17T19:25:18.604Z,16.37
2018-10-17T19:30:26.499Z,16.22
2018-10-17T19:35:30.167Z,16.14
2018-10-17T19:40:33.751Z,16.03
2018-10-17T19:45:37.296Z,15.86
2018-10-17T19:50:40.895Z,15.48
2018-10-17T19:55:44.551Z,15.34
2018-10-17T20:00:48.436Z,15.25
2018-10-17T20:05:51.978Z,15.21
2018-10-17T20:10:55.507Z,15.22
2018-10-17T20:15:59.021Z,15.18
2018-10-17T20:21:02.586Z,15.17
2018-10-17T20:26:06.334Z,15.08
2018-10-17T20:31:09.933Z,14.92
2018-10-17T20:36:13.530Z,14.84
2018-10-17T20:41:17.085Z,14.84
2018-10-17T20:46:20.769Z,14.79
2018-10-17T20:51:24.314Z,14.75
2018-10-17T20:56:27.871Z,14.73
2018-10-17T21:01:31.490Z,14.70
2018-10-17T21:06:35.017Z,14.53
2018-10-17T21:11:38.589Z,14.46
2018-10-17T21:16:42.931Z,14.35
2018-10-17T21:21:46.420Z,14.14
2018-10-17T21:26:50.036Z,14.08
2018-10-17T21:31:53.676Z,14.07
2018-10-17T21:37:00.180Z,14.09
2018-10-17T21:42:03.771Z,14.08
2018-10-17T21:47:08.140Z,14.03
2018-10-17T21:52:20.201Z,14.00
2018-10-17T21:57:29.208Z,14.02
2018-10-17T22:02:35.659Z,14.04
2018-10-17T22:07:44.021Z,13.94
2018-10-17T22:12:50.990Z,13.92
2018-10-17T22:17:54.539Z,13.93
2018-10-17T22:22:58.099Z,13.85
2018-10-17T22:28:10.306Z,13.77
2018-10-17T22:33:13.862Z,13.76
2018-10-17T22:38:17.436Z,13.65
2018-10-17T22:43:20.916Z,13.69
2018-10-17T22:48:24.709Z,13.72
2018-10-17T22:53:28.274Z,13.69
2018-10-17T22:58:31.810Z,13.65
2018-10-17T23:03:35.402Z,13.53
2018-10-17T23:08:38.929Z,13.46
2018-10-17T23:13:42.396Z,13.40
2018-10-17T23:18:45.930Z,13.39
2018-10-17T23:23:49.489Z,13.39
2018-10-17T23:28:53.039Z,13.34
2018-10-17T23:33:56.613Z,13.22
2018-10-17T23:39:00.162Z,13.14
2018-10-17T23:44:03.702Z,13.13
2018-10-17T23:49:07.291Z,13.08
2018-10-17T23:54:10.912Z,13.06
2018-10-17T23:59:14.563Z,13.14
